sensor_id;sensor_type;location;lat;lon;timestamp;pressure;altitude;pressure_sealevel;temperature;humidity
75996;BME280;64681;49.738;9.004;2023-01-15T00:01:03;98039.50;;;10.15;86.21
75996;BME280;64681;49.738;9.004;2023-01-15T00:03:30;98034.44;;;10.06;85.61
75996;BME280;64681;49.738;9.004;2023-01-15T00:06:00;98026.44;;;9.83;86.89
75996;BME280;64681;49.738;9.004;2023-01-15T00:08:26;98022.63;;;10.07;86.04
75996;BME280;64681;49.738;9.004;2023-01-15T00:10:52;98012.66;;;10.04;86.66
75996;BME280;64681;49.738;9.004;2023-01-15T00:13:17;98007.50;;;10.15;85.84
75996;BME280;64681;49.738;9.004;2023-01-15T00:15:43;97998.25;;;9.82;87.02
75996;BME280;64681;49.738;9.004;2023-01-15T00:18:09;97988.63;;;10.01;86.32
75996;BME280;64681;49.738;9.004;2023-01-15T00:20:34;97990.09;;;10.25;85.04
75996;BME280;64681;49.738;9.004;2023-01-15T00:23:00;97989.56;;;10.16;85.80
75996;BME280;64681;49.738;9.004;2023-01-15T00:25:25;97992.94;;;10.09;85.88
75996;BME280;64681;49.738;9.004;2023-01-15T00:28:12;97976.41;;;10.00;85.90
75996;BME280;64681;49.738;9.004;2023-01-15T00:30:40;97984.72;;;9.94;85.80
75996;BME280;64681;49.738;9.004;2023-01-15T00:33:07;97975.19;;;9.93;86.59
75996;BME280;64681;49.738;9.004;2023-01-15T00:35:32;97976.88;;;9.78;87.04
75996;BME280;64681;49.738;9.004;2023-01-15T00:37:58;97967.63;;;9.72;87.14
75996;BME280;64681;49.738;9.004;2023-01-15T00:40:24;97957.22;;;9.90;87.21
75996;BME280;64681;49.738;9.004;2023-01-15T00:42:49;97951.16;;;9.90;87.02
75996;BME280;64681;49.738;9.004;2023-01-15T00:45:15;97956.31;;;10.06;86.56
75996;BME280;64681;49.738;9.004;2023-01-15T00:47:43;97956.44;;;10.17;85.92
75996;BME280;64681;49.738;9.004;2023-01-15T00:50:13;97938.63;;;10.24;85.35
75996;BME280;64681;49.738;9.004;2023-01-15T00:52:40;97933.22;;;10.17;85.86
75996;BME280;64681;49.738;9.004;2023-01-15T00:55:07;97930.47;;;10.10;85.37
75996;BME280;64681;49.738;9.004;2023-01-15T00:57:33;97931.91;;;10.04;85.38
75996;BME280;64681;49.738;9.004;2023-01-15T00:59:59;97942.63;;;10.07;85.24
75996;BME280;64681;49.738;9.004;2023-01-15T01:02:25;97930.50;;;10.13;84.97
75996;BME280;64681;49.738;9.004;2023-01-15T01:04:50;97939.09;;;10.00;85.62
75996;BME280;64681;49.738;9.004;2023-01-15T01:07:16;97939.84;;;10.00;84.95
75996;BME280;64681;49.738;9.004;2023-01-15T01:09:43;97936.53;;;9.80;86.58
75996;BME280;64681;49.738;9.004;2023-01-15T01:12:09;97918.28;;;10.12;84.72
75996;BME280;64681;49.738;9.004;2023-01-15T01:14:35;97933.31;;;10.24;84.43
75996;BME280;64681;49.738;9.004;2023-01-15T01:17:01;97900.84;;;10.19;84.48
75996;BME280;64681;49.738;9.004;2023-01-15T01:19:27;97917.00;;;9.99;85.60
75996;BME280;64681;49.738;9.004;2023-01-15T01:21:52;97901.56;;;9.85;86.14
75996;BME280;64681;49.738;9.004;2023-01-15T01:24:21;97906.50;;;10.13;85.20
75996;BME280;64681;49.738;9.004;2023-01-15T01:26:48;97914.41;;;10.06;86.14
75996;BME280;64681;49.738;9.004;2023-01-15T01:29:20;97912.75;;;10.28;84.89
75996;BME280;64681;49.738;9.004;2023-01-15T01:31:47;97915.25;;;10.41;84.48
75996;BME280;64681;49.738;9.004;2023-01-15T01:34:13;97914.72;;;10.01;86.21
75996;BME280;64681;49.738;9.004;2023-01-15T01:36:42;97895.53;;;10.22;85.64
75996;BME280;64681;49.738;9.004;2023-01-15T01:39:13;97905.34;;;10.11;86.13
75996;BME280;64681;49.738;9.004;2023-01-15T01:41:39;97909.28;;;10.24;85.96
75996;BME280;64681;49.738;9.004;2023-01-15T01:47:15;97902.47;;;10.27;85.49
75996;BME280;64681;49.738;9.004;2023-01-15T01:49:48;97903.13;;;10.20;84.99
75996;BME280;64681;49.738;9.004;2023-01-15T01:52:32;97905.72;;;9.82;87.11
75996;BME280;64681;49.738;9.004;2023-01-15T01:55:02;97898.72;;;10.01;86.88
75996;BME280;64681;49.738;9.004;2023-01-15T01:57:29;97900.34;;;10.09;86.74
75996;BME280;64681;49.738;9.004;2023-01-15T01:59:56;97899.13;;;10.03;87.34
75996;BME280;64681;49.738;9.004;2023-01-15T02:02:23;97889.50;;;9.95;86.89
75996;BME280;64681;49.738;9.004;2023-01-15T02:04:49;97898.75;;;10.05;87.24
75996;BME280;64681;49.738;9.004;2023-01-15T02:07:15;97900.97;;;10.29;85.80
75996;BME280;64681;49.738;9.004;2023-01-15T02:09:41;97895.00;;;10.09;87.02
75996;BME280;64681;49.738;9.004;2023-01-15T02:17:43;97901.09;;;10.06;86.86
75996;BME280;64681;49.738;9.004;2023-01-15T02:20:24;97901.03;;;10.03;87.14
75996;BME280;64681;49.738;9.004;2023-01-15T02:23:22;97908.97;;;10.29;86.08
75996;BME280;64681;49.738;9.004;2023-01-15T02:28:54;97909.66;;;10.23;86.50
75996;BME280;64681;49.738;9.004;2023-01-15T02:31:29;97907.66;;;10.16;87.13
75996;BME280;64681;49.738;9.004;2023-01-15T02:34:05;97897.00;;;10.16;87.42
75996;BME280;64681;49.738;9.004;2023-01-15T02:36:43;97904.53;;;10.37;85.44
75996;BME280;64681;49.738;9.004;2023-01-15T02:39:14;97907.16;;;10.07;87.52
75996;BME280;64681;49.738;9.004;2023-01-15T02:41:46;97904.81;;;10.32;86.70
75996;BME280;64681;49.738;9.004;2023-01-15T02:44:17;97910.63;;;10.38;86.25
75996;BME280;64681;49.738;9.004;2023-01-15T02:46:45;97916.50;;;10.24;86.58
75996;BME280;64681;49.738;9.004;2023-01-15T02:49:16;97918.56;;;10.34;86.79
75996;BME280;64681;49.738;9.004;2023-01-15T02:52:09;97923.06;;;10.60;85.82
75996;BME280;64681;49.738;9.004;2023-01-15T02:54:59;97926.56;;;10.34;86.12
75996;BME280;64681;49.738;9.004;2023-01-15T02:57:32;97942.44;;;10.54;85.44
75996;BME280;64681;49.738;9.004;2023-01-15T03:00:03;97944.03;;;10.62;85.34
75996;BME280;64681;49.738;9.004;2023-01-15T03:02:39;97957.34;;;10.58;85.12
75996;BME280;64681;49.738;9.004;2023-01-15T03:05:39;97984.88;;;10.36;85.89
75996;BME280;64681;49.738;9.004;2023-01-15T03:08:08;97985.91;;;10.27;83.88
75996;BME280;64681;49.738;9.004;2023-01-15T03:13:30;97986.88;;;9.85;83.80
75996;BME280;64681;49.738;9.004;2023-01-15T03:16:03;97994.97;;;9.42;84.72
75996;BME280;64681;49.738;9.004;2023-01-15T03:19:25;98001.06;;;9.43;84.78
75996;BME280;64681;49.738;9.004;2023-01-15T03:21:58;97999.06;;;9.36;84.01
75996;BME280;64681;49.738;9.004;2023-01-15T03:24:32;98006.56;;;9.30;85.05
75996;BME280;64681;49.738;9.004;2023-01-15T03:27:00;98004.84;;;9.18;84.76
75996;BME280;64681;49.738;9.004;2023-01-15T03:29:39;98011.16;;;9.10;85.93
75996;BME280;64681;49.738;9.004;2023-01-15T03:32:06;98009.22;;;9.07;86.13
75996;BME280;64681;49.738;9.004;2023-01-15T03:34:44;98001.53;;;9.25;84.68
75996;BME280;64681;49.738;9.004;2023-01-15T03:37:11;98002.03;;;9.31;84.67
75996;BME280;64681;49.738;9.004;2023-01-15T03:39:38;98019.31;;;9.41;84.45
75996;BME280;64681;49.738;9.004;2023-01-15T03:45:28;98010.38;;;9.53;83.67
75996;BME280;64681;49.738;9.004;2023-01-15T03:53:31;98024.88;;;9.55;83.51
75996;BME280;64681;49.738;9.004;2023-01-15T03:58:46;98024.56;;;9.37;84.03
75996;BME280;64681;49.738;9.004;2023-01-15T04:01:18;98036.97;;;9.29;82.85
75996;BME280;64681;49.738;9.004;2023-01-15T04:03:48;98037.72;;;9.07;84.01
75996;BME280;64681;49.738;9.004;2023-01-15T04:06:16;98035.97;;;8.95;83.58
75996;BME280;64681;49.738;9.004;2023-01-15T04:08:45;98035.56;;;8.73;85.47
75996;BME280;64681;49.738;9.004;2023-01-15T04:11:11;98033.53;;;8.31;86.60
75996;BME280;64681;49.738;9.004;2023-01-15T04:13:37;98042.13;;;8.79;85.30
75996;BME280;64681;49.738;9.004;2023-01-15T04:16:03;98049.16;;;8.68;85.98
75996;BME280;64681;49.738;9.004;2023-01-15T04:18:29;98055.25;;;8.88;85.37
75996;BME280;64681;49.738;9.004;2023-01-15T04:20:54;98052.78;;;8.99;84.04
75996;BME280;64681;49.738;9.004;2023-01-15T04:23:20;98060.44;;;9.00;83.46
75996;BME280;64681;49.738;9.004;2023-01-15T04:25:46;98056.69;;;8.30;84.82
75996;BME280;64681;49.738;9.004;2023-01-15T04:28:12;98065.66;;;8.42;85.22
75996;BME280;64681;49.738;9.004;2023-01-15T04:30:37;98078.00;;;8.66;84.70
75996;BME280;64681;49.738;9.004;2023-01-15T04:33:04;98075.19;;;8.78;83.66
75996;BME280;64681;49.738;9.004;2023-01-15T04:35:30;98083.03;;;8.71;83.83
75996;BME280;64681;49.738;9.004;2023-01-15T04:37:59;98091.50;;;8.41;83.95
75996;BME280;64681;49.738;9.004;2023-01-15T04:40:26;98092.59;;;8.92;82.35
75996;BME280;64681;49.738;9.004;2023-01-15T04:43:11;98085.16;;;8.30;82.32
75996;BME280;64681;49.738;9.004;2023-01-15T04:45:56;98090.56;;;8.17;84.06
75996;BME280;64681;49.738;9.004;2023-01-15T04:48:22;98108.75;;;7.99;84.81
75996;BME280;64681;49.738;9.004;2023-01-15T04:50:48;98105.78;;;8.17;83.50
75996;BME280;64681;49.738;9.004;2023-01-15T04:53:13;98104.31;;;8.19;82.81
75996;BME280;64681;49.738;9.004;2023-01-15T04:55:39;98108.44;;;8.17;83.53
75996;BME280;64681;49.738;9.004;2023-01-15T04:58:04;98118.47;;;7.91;84.09
75996;BME280;64681;49.738;9.004;2023-01-15T05:00:30;98115.63;;;8.00;83.94
75996;BME280;64681;49.738;9.004;2023-01-15T05:02:55;98111.25;;;8.24;82.55
75996;BME280;64681;49.738;9.004;2023-01-15T05:05:21;98118.28;;;8.00;82.52
75996;BME280;64681;49.738;9.004;2023-01-15T05:07:47;98103.41;;;7.67;83.97
75996;BME280;64681;49.738;9.004;2023-01-15T05:10:12;98110.09;;;7.61;84.31
75996;BME280;64681;49.738;9.004;2023-01-15T05:12:38;98129.41;;;7.29;84.88
75996;BME280;64681;49.738;9.004;2023-01-15T05:15:04;98119.25;;;7.48;84.63
75996;BME280;64681;49.738;9.004;2023-01-15T05:17:31;98129.66;;;7.69;84.27
75996;BME280;64681;49.738;9.004;2023-01-15T05:19:57;98121.13;;;7.91;82.57
75996;BME280;64681;49.738;9.004;2023-01-15T05:22:23;98124.84;;;7.74;82.49
75996;BME280;64681;49.738;9.004;2023-01-15T05:24:48;98121.94;;;7.64;83.36
75996;BME280;64681;49.738;9.004;2023-01-15T05:27:14;98112.53;;;7.66;83.24
75996;BME280;64681;49.738;9.004;2023-01-15T05:29:39;98119.03;;;7.69;82.50
75996;BME280;64681;49.738;9.004;2023-01-15T05:32:05;98111.47;;;7.55;82.72
75996;BME280;64681;49.738;9.004;2023-01-15T05:34:30;98121.38;;;7.42;83.25
75996;BME280;64681;49.738;9.004;2023-01-15T05:36:56;98126.47;;;7.06;84.37
75996;BME280;64681;49.738;9.004;2023-01-15T05:39:22;98122.66;;;6.91;84.09
75996;BME280;64681;49.738;9.004;2023-01-15T05:41:47;98121.84;;;7.03;83.99
75996;BME280;64681;49.738;9.004;2023-01-15T05:44:21;98122.66;;;6.91;85.32
75996;BME280;64681;49.738;9.004;2023-01-15T05:46:49;98137.06;;;7.19;84.22
75996;BME280;64681;49.738;9.004;2023-01-15T05:49:19;98145.97;;;7.39;84.04
75996;BME280;64681;49.738;9.004;2023-01-15T05:51:46;98138.97;;;7.63;83.13
75996;BME280;64681;49.738;9.004;2023-01-15T05:54:19;98144.53;;;7.57;83.31
75996;BME280;64681;49.738;9.004;2023-01-15T05:56:45;98158.25;;;7.31;83.94
75996;BME280;64681;49.738;9.004;2023-01-15T05:59:12;98145.34;;;7.58;83.01
75996;BME280;64681;49.738;9.004;2023-01-15T06:01:38;98159.09;;;7.48;82.48
75996;BME280;64681;49.738;9.004;2023-01-15T06:04:05;98149.56;;;7.47;82.76
75996;BME280;64681;49.738;9.004;2023-01-15T06:06:33;98163.00;;;7.66;82.17
75996;BME280;64681;49.738;9.004;2023-01-15T06:09:00;98163.19;;;7.45;82.12
75996;BME280;64681;49.738;9.004;2023-01-15T06:11:25;98174.25;;;7.06;83.49
75996;BME280;64681;49.738;9.004;2023-01-15T06:13:51;98169.53;;;6.87;84.30
75996;BME280;64681;49.738;9.004;2023-01-15T06:16:18;98163.59;;;6.78;84.58
75996;BME280;64681;49.738;9.004;2023-01-15T06:18:44;98163.66;;;6.94;83.00
75996;BME280;64681;49.738;9.004;2023-01-15T06:21:11;98162.78;;;6.90;80.78
75996;BME280;64681;49.738;9.004;2023-01-15T06:23:38;98153.28;;;6.89;80.35
75996;BME280;64681;49.738;9.004;2023-01-15T06:26:07;98168.22;;;6.19;83.20
75996;BME280;64681;49.738;9.004;2023-01-15T06:28:34;98177.84;;;6.36;81.28
75996;BME280;64681;49.738;9.004;2023-01-15T06:31:04;98184.00;;;6.15;82.19
75996;BME280;64681;49.738;9.004;2023-01-15T06:33:30;98192.06;;;6.07;82.65
75996;BME280;64681;49.738;9.004;2023-01-15T06:35:56;98181.66;;;6.01;81.72
75996;BME280;64681;49.738;9.004;2023-01-15T06:38:21;98208.31;;;6.17;81.34
75996;BME280;64681;49.738;9.004;2023-01-15T06:40:47;98217.94;;;6.22;82.67
75996;BME280;64681;49.738;9.004;2023-01-15T06:43:12;98222.31;;;6.06;82.10
75996;BME280;64681;49.738;9.004;2023-01-15T06:45:57;98228.19;;;6.24;81.94
75996;BME280;64681;49.738;9.004;2023-01-15T06:48:41;98219.81;;;6.34;81.40
75996;BME280;64681;49.738;9.004;2023-01-15T06:51:07;98220.47;;;5.85;84.27
75996;BME280;64681;49.738;9.004;2023-01-15T06:53:33;98234.16;;;6.21;83.21
75996;BME280;64681;49.738;9.004;2023-01-15T06:56:00;98246.03;;;6.02;82.75
75996;BME280;64681;49.738;9.004;2023-01-15T06:58:25;98230.44;;;5.67;84.51
75996;BME280;64681;49.738;9.004;2023-01-15T07:00:51;98217.25;;;5.37;85.05
75996;BME280;64681;49.738;9.004;2023-01-15T07:03:21;98200.84;;;5.44;85.14
75996;BME280;64681;49.738;9.004;2023-01-15T07:05:47;98243.72;;;5.16;87.30
75996;BME280;64681;49.738;9.004;2023-01-15T07:08:13;98251.47;;;5.63;86.27
75996;BME280;64681;49.738;9.004;2023-01-15T07:10:38;98251.56;;;6.09;83.17
75996;BME280;64681;49.738;9.004;2023-01-15T07:13:04;98256.56;;;5.90;84.38
75996;BME280;64681;49.738;9.004;2023-01-15T07:15:31;98260.28;;;6.10;83.87
75996;BME280;64681;49.738;9.004;2023-01-15T07:17:57;98262.38;;;6.04;84.21
75996;BME280;64681;49.738;9.004;2023-01-15T07:20:22;98264.06;;;5.88;85.18
75996;BME280;64681;49.738;9.004;2023-01-15T07:22:51;98271.63;;;6.31;83.57
75996;BME280;64681;49.738;9.004;2023-01-15T07:25:17;98277.19;;;5.63;85.32
75996;BME280;64681;49.738;9.004;2023-01-15T07:27:45;98283.50;;;5.49;85.51
75996;BME280;64681;49.738;9.004;2023-01-15T07:30:11;98287.56;;;4.87;88.06
75996;BME280;64681;49.738;9.004;2023-01-15T07:32:36;98303.19;;;5.39;87.01
75996;BME280;64681;49.738;9.004;2023-01-15T07:35:02;98285.72;;;5.68;85.77
75996;BME280;64681;49.738;9.004;2023-01-15T07:37:27;98304.13;;;6.07;85.76
75996;BME280;64681;49.738;9.004;2023-01-15T07:39:53;98298.34;;;6.26;84.55
75996;BME280;64681;49.738;9.004;2023-01-15T07:42:18;98310.84;;;6.38;84.15
75996;BME280;64681;49.738;9.004;2023-01-15T07:45:03;98315.69;;;6.36;83.92
75996;BME280;64681;49.738;9.004;2023-01-15T07:47:47;98317.31;;;6.62;83.04
75996;BME280;64681;49.738;9.004;2023-01-15T07:50:32;98324.41;;;6.70;82.96
75996;BME280;64681;49.738;9.004;2023-01-15T07:52:57;98325.22;;;6.83;82.63
75996;BME280;64681;49.738;9.004;2023-01-15T07:55:23;98313.59;;;6.88;83.23
75996;BME280;64681;49.738;9.004;2023-01-15T07:57:49;98316.59;;;6.99;81.77
75996;BME280;64681;49.738;9.004;2023-01-15T08:00:20;98313.97;;;5.98;84.00
75996;BME280;64681;49.738;9.004;2023-01-15T08:02:46;98330.41;;;5.91;85.30
75996;BME280;64681;49.738;9.004;2023-01-15T08:05:14;98329.28;;;6.34;84.25
75996;BME280;64681;49.738;9.004;2023-01-15T08:07:41;98333.84;;;6.92;81.97
75996;BME280;64681;49.738;9.004;2023-01-15T08:10:09;98335.59;;;6.88;81.67
75996;BME280;64681;49.738;9.004;2023-01-15T08:12:34;98333.34;;;6.65;83.45
75996;BME280;64681;49.738;9.004;2023-01-15T08:15:19;98342.28;;;7.32;80.07
75996;BME280;64681;49.738;9.004;2023-01-15T08:17:47;98346.13;;;6.97;81.38
75996;BME280;64681;49.738;9.004;2023-01-15T08:20:25;98353.00;;;7.10;81.98
75996;BME280;64681;49.738;9.004;2023-01-15T08:22:50;98345.44;;;6.88;82.65
75996;BME280;64681;49.738;9.004;2023-01-15T08:25:19;98352.44;;;6.92;82.55
75996;BME280;64681;49.738;9.004;2023-01-15T08:27:46;98349.13;;;7.20;81.70
75996;BME280;64681;49.738;9.004;2023-01-15T08:30:30;98350.91;;;7.16;81.29
75996;BME280;64681;49.738;9.004;2023-01-15T08:33:00;98348.22;;;6.91;81.67
75996;BME280;64681;49.738;9.004;2023-01-15T08:35:27;98352.38;;;6.68;82.21
75996;BME280;64681;49.738;9.004;2023-01-15T08:37:52;98371.06;;;6.71;81.54
75996;BME280;64681;49.738;9.004;2023-01-15T08:40:18;98361.94;;;6.26;82.93
75996;BME280;64681;49.738;9.004;2023-01-15T08:42:43;98359.72;;;6.49;82.15
75996;BME280;64681;49.738;9.004;2023-01-15T08:45:09;98360.03;;;5.93;83.32
75996;BME280;64681;49.738;9.004;2023-01-15T08:47:35;98365.06;;;5.86;83.62
75996;BME280;64681;49.738;9.004;2023-01-15T08:50:01;98374.56;;;6.08;83.53
75996;BME280;64681;49.738;9.004;2023-01-15T08:52:27;98374.78;;;6.03;84.92
75996;BME280;64681;49.738;9.004;2023-01-15T08:54:52;98380.97;;;6.28;83.99
75996;BME280;64681;49.738;9.004;2023-01-15T08:57:18;98377.47;;;6.15;83.57
75996;BME280;64681;49.738;9.004;2023-01-15T08:59:43;98386.56;;;6.48;82.27
75996;BME280;64681;49.738;9.004;2023-01-15T09:02:13;98391.78;;;6.02;83.65
75996;BME280;64681;49.738;9.004;2023-01-15T09:04:39;98395.69;;;6.38;82.28
75996;BME280;64681;49.738;9.004;2023-01-15T09:07:05;98399.94;;;6.52;81.65
75996;BME280;64681;49.738;9.004;2023-01-15T09:09:30;98402.81;;;6.46;81.78
75996;BME280;64681;49.738;9.004;2023-01-15T09:11:57;98407.25;;;6.55;82.39
75996;BME280;64681;49.738;9.004;2023-01-15T09:14:23;98404.06;;;6.28;81.29
75996;BME280;64681;49.738;9.004;2023-01-15T09:16:48;98412.28;;;6.14;82.08
75996;BME280;64681;49.738;9.004;2023-01-15T09:19:14;98422.63;;;6.07;82.45
75996;BME280;64681;49.738;9.004;2023-01-15T09:21:39;98415.75;;;5.76;84.11
75996;BME280;64681;49.738;9.004;2023-01-15T09:24:05;98417.84;;;5.91;82.74
75996;BME280;64681;49.738;9.004;2023-01-15T09:26:33;98426.69;;;5.74;84.03
75996;BME280;64681;49.738;9.004;2023-01-15T09:29:00;98431.84;;;6.00;83.98
75996;BME280;64681;49.738;9.004;2023-01-15T09:31:27;98436.38;;;6.21;82.27
75996;BME280;64681;49.738;9.004;2023-01-15T09:33:53;98436.81;;;6.02;83.06
75996;BME280;64681;49.738;9.004;2023-01-15T09:36:23;98443.06;;;5.97;83.50
75996;BME280;64681;49.738;9.004;2023-01-15T09:38:50;98434.06;;;6.20;82.72
75996;BME280;64681;49.738;9.004;2023-01-15T09:41:16;98447.59;;;5.97;83.32
75996;BME280;64681;49.738;9.004;2023-01-15T09:49:49;98464.97;;;6.37;82.29
75996;BME280;64681;49.738;9.004;2023-01-15T09:55:21;98463.00;;;6.67;80.83
75996;BME280;64681;49.738;9.004;2023-01-15T09:57:53;98482.91;;;6.40;82.08
75996;BME280;64681;49.738;9.004;2023-01-15T10:00:25;98464.75;;;5.99;82.24
75996;BME280;64681;49.738;9.004;2023-01-15T10:08:29;98485.56;;;6.10;82.94
75996;BME280;64681;49.738;9.004;2023-01-15T10:11:03;98482.81;;;6.27;83.12
75996;BME280;64681;49.738;9.004;2023-01-15T10:13:40;98489.41;;;6.42;81.80
75996;BME280;64681;49.738;9.004;2023-01-15T10:16:10;98489.41;;;6.42;81.60
75996;BME280;64681;49.738;9.004;2023-01-15T10:18:38;98507.09;;;6.08;82.72
75996;BME280;64681;49.738;9.004;2023-01-15T10:21:23;98495.59;;;6.25;81.32
75996;BME280;64681;49.738;9.004;2023-01-15T10:24:23;98526.81;;;5.90;82.55
75996;BME280;64681;49.738;9.004;2023-01-15T10:26:58;98524.41;;;5.58;84.83
75996;BME280;64681;49.738;9.004;2023-01-15T10:37:46;98543.53;;;5.73;82.98
75996;BME280;64681;49.738;9.004;2023-01-15T10:41:21;98543.28;;;5.57;82.96
75996;BME280;64681;49.738;9.004;2023-01-15T10:46:15;98535.34;;;5.95;82.20
75996;BME280;64681;49.738;9.004;2023-01-15T10:48:46;98545.41;;;6.11;81.74
75996;BME280;64681;49.738;9.004;2023-01-15T10:51:27;98557.13;;;6.10;82.08
75996;BME280;64681;49.738;9.004;2023-01-15T10:56:58;98532.97;;;6.11;80.92
75996;BME280;64681;49.738;9.004;2023-01-15T11:04:42;98552.94;;;6.39;79.67
75996;BME280;64681;49.738;9.004;2023-01-15T11:07:10;98549.38;;;5.96;80.89
75996;BME280;64681;49.738;9.004;2023-01-15T11:09:37;98552.09;;;6.17;78.89
75996;BME280;64681;49.738;9.004;2023-01-15T11:12:19;98550.31;;;5.91;80.65
75996;BME280;64681;49.738;9.004;2023-01-15T11:14:45;98536.25;;;5.61;81.03
75996;BME280;64681;49.738;9.004;2023-01-15T11:20:43;98548.78;;;5.25;81.66
75996;BME280;64681;49.738;9.004;2023-01-15T11:23:12;98559.50;;;5.94;80.29
75996;BME280;64681;49.738;9.004;2023-01-15T11:25:54;98553.47;;;5.84;79.41
75996;BME280;64681;49.738;9.004;2023-01-15T11:28:34;98561.34;;;5.54;81.87
75996;BME280;64681;49.738;9.004;2023-01-15T11:31:01;98550.91;;;5.58;80.22
75996;BME280;64681;49.738;9.004;2023-01-15T11:33:29;98548.22;;;4.93;80.82
75996;BME280;64681;49.738;9.004;2023-01-15T11:35:59;98542.69;;;5.33;80.51
75996;BME280;64681;49.738;9.004;2023-01-15T11:38:29;98520.81;;;4.80;79.04
75996;BME280;64681;49.738;9.004;2023-01-15T11:41:00;98532.44;;;5.32;79.93
75996;BME280;64681;49.738;9.004;2023-01-15T11:43:29;98530.44;;;5.29;78.41
75996;BME280;64681;49.738;9.004;2023-01-15T11:46:28;98526.00;;;5.42;78.00
75996;BME280;64681;49.738;9.004;2023-01-15T11:49:17;98532.50;;;5.62;78.34
75996;BME280;64681;49.738;9.004;2023-01-15T11:52:08;98530.09;;;5.21;78.09
75996;BME280;64681;49.738;9.004;2023-01-15T11:54:48;98528.56;;;5.20;78.54
75996;BME280;64681;49.738;9.004;2023-01-15T11:57:30;98536.66;;;5.24;78.66
75996;BME280;64681;49.738;9.004;2023-01-15T11:59:57;98542.72;;;5.25;78.11
75996;BME280;64681;49.738;9.004;2023-01-15T12:02:39;98547.69;;;5.35;77.08
75996;BME280;64681;49.738;9.004;2023-01-15T12:05:27;98556.22;;;5.41;78.12
75996;BME280;64681;49.738;9.004;2023-01-15T12:07:57;98547.09;;;5.12;78.54
75996;BME280;64681;49.738;9.004;2023-01-15T12:10:53;98557.06;;;4.71;79.25
75996;BME280;64681;49.738;9.004;2023-01-15T12:13:57;98554.88;;;5.08;80.23
75996;BME280;64681;49.738;9.004;2023-01-15T12:16:42;98540.22;;;5.28;80.67
75996;BME280;64681;49.738;9.004;2023-01-15T12:19:37;98538.06;;;4.95;79.85
75996;BME280;64681;49.738;9.004;2023-01-15T12:31:00;98546.00;;;4.51;78.47
75996;BME280;64681;49.738;9.004;2023-01-15T12:41:56;98532.78;;;5.13;77.27
75996;BME280;64681;49.738;9.004;2023-01-15T12:45:14;98526.13;;;4.80;78.26
75996;BME280;64681;49.738;9.004;2023-01-15T12:52:49;98532.16;;;4.54;78.36
75996;BME280;64681;49.738;9.004;2023-01-15T12:55:25;98540.09;;;5.07;79.49
75996;BME280;64681;49.738;9.004;2023-01-15T12:57:59;98523.53;;;5.36;77.43
75996;BME280;64681;49.738;9.004;2023-01-15T13:00:34;98532.59;;;5.27;76.79
75996;BME280;64681;49.738;9.004;2023-01-15T13:03:24;98534.13;;;5.36;76.55
75996;BME280;64681;49.738;9.004;2023-01-15T13:05:59;98533.97;;;5.42;77.36
75996;BME280;64681;49.738;9.004;2023-01-15T13:11:11;98537.44;;;5.07;76.82
75996;BME280;64681;49.738;9.004;2023-01-15T13:13:41;98539.00;;;5.17;77.99
75996;BME280;64681;49.738;9.004;2023-01-15T13:16:29;98522.53;;;4.94;79.07
75996;BME280;64681;49.738;9.004;2023-01-15T13:19:33;98516.13;;;5.03;78.48
75996;BME280;64681;49.738;9.004;2023-01-15T13:22:09;98518.44;;;5.31;78.31
75996;BME280;64681;49.738;9.004;2023-01-15T13:27:44;98536.34;;;5.26;77.29
75996;BME280;64681;49.738;9.004;2023-01-15T13:32:49;98554.25;;;5.29;78.28
75996;BME280;64681;49.738;9.004;2023-01-15T13:35:36;98562.97;;;5.20;77.69
75996;BME280;64681;49.738;9.004;2023-01-15T13:38:17;98581.00;;;5.45;77.81
75996;BME280;64681;49.738;9.004;2023-01-15T13:40:48;98579.09;;;5.63;76.90
75996;BME280;64681;49.738;9.004;2023-01-15T13:43:28;98591.84;;;5.69;77.04
75996;BME280;64681;49.738;9.004;2023-01-15T13:45:56;98581.47;;;5.29;76.75
75996;BME280;64681;49.738;9.004;2023-01-15T13:48:31;98579.59;;;5.47;76.42
75996;BME280;64681;49.738;9.004;2023-01-15T13:51:00;98579.38;;;5.70;75.39
75996;BME280;64681;49.738;9.004;2023-01-15T13:53:33;98584.13;;;5.29;74.64
75996;BME280;64681;49.738;9.004;2023-01-15T13:56:09;98584.25;;;5.42;76.77
75996;BME280;64681;49.738;9.004;2023-01-15T14:04:06;98595.81;;;5.19;75.25
75996;BME280;64681;49.738;9.004;2023-01-15T14:06:46;98589.25;;;5.34;74.90
75996;BME280;64681;49.738;9.004;2023-01-15T14:09:25;98591.72;;;5.48;75.13
75996;BME280;64681;49.738;9.004;2023-01-15T14:14:47;98603.25;;;5.61;74.89
75996;BME280;64681;49.738;9.004;2023-01-15T14:28:52;98600.91;;;5.51;74.20
75996;BME280;64681;49.738;9.004;2023-01-15T14:31:23;98598.59;;;5.49;74.67
75996;BME280;64681;49.738;9.004;2023-01-15T14:34:31;98608.25;;;5.45;74.10
75996;BME280;64681;49.738;9.004;2023-01-15T14:37:04;98607.19;;;5.20;74.62
75996;BME280;64681;49.738;9.004;2023-01-15T14:39:50;98594.69;;;5.38;75.26
75996;BME280;64681;49.738;9.004;2023-01-15T14:47:53;98589.56;;;5.50;73.71
75996;BME280;64681;49.738;9.004;2023-01-15T14:52:55;98602.03;;;5.32;74.44
75996;BME280;64681;49.738;9.004;2023-01-15T14:55:23;98586.72;;;5.55;73.58
75996;BME280;64681;49.738;9.004;2023-01-15T14:58:05;98595.59;;;5.60;73.55
75996;BME280;64681;49.738;9.004;2023-01-15T15:00:41;98602.50;;;5.26;75.61
75996;BME280;64681;49.738;9.004;2023-01-15T15:03:35;98592.31;;;5.63;74.42
75996;BME280;64681;49.738;9.004;2023-01-15T15:06:04;98607.09;;;5.73;73.36
75996;BME280;64681;49.738;9.004;2023-01-15T15:08:33;98610.69;;;5.77;72.10
75996;BME280;64681;49.738;9.004;2023-01-15T15:11:02;98622.94;;;6.08;72.71
75996;BME280;64681;49.738;9.004;2023-01-15T15:13:51;98611.81;;;6.14;71.22
75996;BME280;64681;49.738;9.004;2023-01-15T15:16:25;98619.22;;;5.91;72.97
75996;BME280;64681;49.738;9.004;2023-01-15T15:21:40;98629.78;;;6.09;71.90
75996;BME280;64681;49.738;9.004;2023-01-15T15:26:39;98602.75;;;5.68;72.49
75996;BME280;64681;49.738;9.004;2023-01-15T15:29:10;98639.41;;;6.13;72.45
75996;BME280;64681;49.738;9.004;2023-01-15T15:31:42;98636.47;;;6.06;72.04
75996;BME280;64681;49.738;9.004;2023-01-15T15:34:28;98636.78;;;6.13;72.91
75996;BME280;64681;49.738;9.004;2023-01-15T15:37:00;98639.41;;;6.22;71.74
75996;BME280;64681;49.738;9.004;2023-01-15T15:40:13;98649.72;;;6.15;71.84